createdAt,value
2023-04-23T00:01:17.856Z,72.31
2023-04-23T00:03:45.488Z,72.07
2023-04-23T00:06:13.078Z,72.58
2023-04-23T00:08:41.280Z,72.63
2023-04-23T00:11:09.436Z,72.36
2023-04-23T00:13:36.994Z,74.66
2023-04-23T00:16:04.291Z,73.94
2023-04-23T00:18:31.155Z,73.97
2023-04-23T00:20:58.122Z,73.76
2023-04-23T00:23:25.294Z,74.47
2023-04-23T00:25:52.057Z,74.03
2023-04-23T00:28:21.520Z,73.86
2023-04-23T00:30:49.041Z,73.73
2023-04-23T00:33:16.051Z,76.14
2023-04-23T00:35:42.798Z,73.88
2023-04-23T00:38:09.646Z,73.95
2023-04-23T00:40:36.496Z,74.10
2023-04-23T00:43:07.268Z,75.09
2023-04-23T00:45:34.340Z,74.69
2023-04-23T00:48:02.906Z,73.60
2023-04-23T00:50:29.750Z,74.16
2023-04-23T00:52:56.684Z,75.19
2023-04-23T00:55:23.535Z,74.43
2023-04-23T00:57:50.990Z,76.23
2023-04-23T01:00:18.886Z,77.42
2023-04-23T01:02:47.554Z,76.04
2023-04-23T01:05:16.038Z,75.93
2023-04-23T01:07:44.607Z,76.26
2023-04-23T01:10:12.777Z,75.93
2023-04-23T01:12:40.014Z,75.58
2023-04-23T01:15:07.927Z,75.26
2023-04-23T01:17:34.816Z,77.75
2023-04-23T01:20:01.577Z,77.22
2023-04-23T01:22:28.645Z,77.70
2023-04-23T01:24:55.811Z,76.15
2023-04-23T01:27:24.892Z,76.85
2023-04-23T01:29:52.101Z,76.16
2023-04-23T01:32:19.428Z,77.85
2023-04-23T01:34:48.138Z,76.66
2023-04-23T01:37:17.395Z,76.64
2023-04-23T01:39:44.482Z,76.95
2023-04-23T01:42:11.553Z,77.04
2023-04-23T01:44:38.647Z,76.20
2023-04-23T01:47:07.243Z,77.41
2023-04-23T01:49:34.334Z,79.29
2023-04-23T01:52:04.215Z,78.80
2023-04-23T01:54:30.942Z,77.53
2023-04-23T01:56:59.008Z,76.90
2023-04-23T01:59:26.577Z,76.37
2023-04-23T02:01:53.639Z,77.12
2023-04-23T02:04:22.368Z,78.36
2023-04-23T02:06:52.125Z,77.11
2023-04-23T02:09:18.856Z,77.10
2023-04-23T02:11:46.842Z,78.82
2023-04-23T02:14:13.866Z,79.06
2023-04-23T02:16:40.544Z,77.92
2023-04-23T02:19:08.235Z,77.94
2023-04-23T02:21:34.926Z,79.55
2023-04-23T02:24:01.756Z,77.83
2023-04-23T02:26:29.219Z,77.73
2023-04-23T02:28:56.062Z,80.08
2023-04-23T02:31:23.181Z,78.55
2023-04-23T02:33:50.156Z,79.63
2023-04-23T02:36:17.234Z,78.60
2023-04-23T02:38:45.644Z,80.17
2023-04-23T02:41:12.434Z,77.75
2023-04-23T02:43:39.199Z,78.16
2023-04-23T02:46:09.649Z,77.68
2023-04-23T02:48:41.453Z,77.05
2023-04-23T02:51:11.117Z,78.14
2023-04-23T02:53:37.933Z,79.08
2023-04-23T02:56:04.935Z,77.88
2023-04-23T02:58:32.041Z,79.35
2023-04-23T03:01:00.875Z,78.68
2023-04-23T03:03:32.205Z,79.29
2023-04-23T03:06:02.215Z,78.61
2023-04-23T03:08:29.115Z,78.20
2023-04-23T03:10:56.046Z,79.16
2023-04-23T03:13:23.145Z,79.71
2023-04-23T03:15:50.736Z,78.96
2023-04-23T03:18:18.208Z,77.93
2023-04-23T03:20:48.125Z,76.17
2023-04-23T03:23:15.480Z,75.95
2023-04-23T03:25:42.504Z,78.14
2023-04-23T03:28:09.226Z,77.29
2023-04-23T03:30:36.128Z,76.32
2023-04-23T03:33:03.390Z,78.35
2023-04-23T03:35:30.730Z,77.13
2023-04-23T03:38:00.807Z,77.17
2023-04-23T03:40:27.602Z,78.33
2023-04-23T03:42:58.397Z,76.57
2023-04-23T03:45:46.158Z,78.13
2023-04-23T03:48:15.081Z,76.46
2023-04-23T03:50:42.953Z,76.26
2023-04-23T03:53:23.132Z,75.53
2023-04-23T03:56:08.393Z,75.54
2023-04-23T03:58:45.175Z,75.48
2023-04-23T04:01:11.816Z,75.92
2023-04-23T04:03:38.735Z,76.19
2023-04-23T04:06:05.707Z,76.63
2023-04-23T04:08:32.412Z,76.44
2023-04-23T04:11:00.412Z,76.79
2023-04-23T04:13:27.366Z,77.51
2023-04-23T04:15:54.108Z,76.21
2023-04-23T04:18:21.317Z,76.21
2023-04-23T04:20:48.132Z,77.03
2023-04-23T04:23:16.285Z,77.39
2023-04-23T04:25:43.098Z,76.42
2023-04-23T04:28:11.854Z,77.36
2023-04-23T04:30:39.534Z,76.48
2023-04-23T04:33:06.326Z,76.37
2023-04-23T04:35:33.022Z,76.99
2023-04-23T04:37:59.956Z,77.98
2023-04-23T04:40:28.568Z,78.51
2023-04-23T04:42:55.278Z,77.67
2023-04-23T04:45:22.060Z,77.86
2023-04-23T04:47:48.775Z,77.89
2023-04-23T04:50:15.655Z,79.34
2023-04-23T04:52:42.683Z,78.00
2023-04-23T04:55:09.839Z,77.03
2023-04-23T04:57:36.648Z,78.19
2023-04-23T05:00:23.032Z,77.02
2023-04-23T05:02:53.244Z,77.28
2023-04-23T05:05:21.932Z,77.39
2023-04-23T05:07:48.830Z,76.19
2023-04-23T05:10:16.452Z,77.10
2023-04-23T05:12:43.814Z,75.97
2023-04-23T05:15:13.409Z,74.96
2023-04-23T05:17:41.600Z,75.49
2023-04-23T05:20:10.971Z,75.64
2023-04-23T05:22:38.796Z,75.17
2023-04-23T05:25:07.243Z,75.83
2023-04-23T05:27:34.754Z,75.71
2023-04-23T05:30:08.029Z,77.60
2023-04-23T05:32:35.632Z,77.23
2023-04-23T05:35:03.807Z,76.33
2023-04-23T05:37:31.033Z,76.67
2023-04-23T05:39:58.390Z,75.88
2023-04-23T05:42:25.499Z,75.65
2023-04-23T05:44:52.174Z,74.11
2023-04-23T05:47:19.000Z,73.83
2023-04-23T05:49:45.724Z,74.61
2023-04-23T05:52:12.563Z,72.72
2023-04-23T05:54:39.517Z,70.43
2023-04-23T05:57:06.686Z,68.40
2023-04-23T05:59:33.906Z,67.89
2023-04-23T06:02:00.810Z,67.97
2023-04-23T06:04:27.784Z,68.59
2023-04-23T06:06:54.769Z,68.75
2023-04-23T06:09:21.549Z,65.97
2023-04-23T06:11:50.550Z,70.08
2023-04-23T06:14:17.315Z,72.37
2023-04-23T06:16:44.054Z,71.35
2023-04-23T06:19:11.872Z,69.20
2023-04-23T06:21:39.190Z,70.08
2023-04-23T06:24:07.485Z,71.45
2023-04-23T06:26:35.011Z,69.89
2023-04-23T06:29:09.810Z,68.40
2023-04-23T06:31:43.121Z,66.86
2023-04-23T06:34:09.895Z,68.71
2023-04-23T06:36:36.598Z,64.32
2023-04-23T06:39:03.494Z,65.93
2023-04-23T06:41:30.508Z,66.16
2023-04-23T06:44:08.526Z,69.13
2023-04-23T06:46:39.349Z,66.27
2023-04-23T06:49:06.070Z,67.96
2023-04-23T06:51:32.809Z,68.18
2023-04-23T06:53:59.625Z,66.10
2023-04-23T06:56:27.484Z,64.78
2023-04-23T06:58:54.246Z,66.78
2023-04-23T07:01:22.340Z,62.97
2023-04-23T07:03:51.546Z,63.70
2023-04-23T07:06:18.519Z,60.25
2023-04-23T07:08:45.360Z,62.43
2023-04-23T07:11:12.217Z,60.58
2023-04-23T07:14:00.700Z,60.39
2023-04-23T07:16:29.904Z,58.77
2023-04-23T07:18:56.909Z,59.86
2023-04-23T07:21:23.752Z,57.15
2023-04-23T07:23:50.940Z,60.00
2023-04-23T07:26:17.784Z,56.90
2023-04-23T07:28:46.462Z,59.16
2023-04-23T07:31:13.300Z,59.60
2023-04-23T07:33:41.517Z,58.07
2023-04-23T07:36:08.332Z,58.69
2023-04-23T07:38:34.998Z,57.25
2023-04-23T07:41:02.279Z,56.24
2023-04-23T07:43:29.045Z,57.44
2023-04-23T07:45:55.698Z,55.47
2023-04-23T07:48:22.437Z,56.14
2023-04-23T07:50:51.243Z,55.21
2023-04-23T07:53:18.892Z,57.04
2023-04-23T07:55:45.950Z,61.01
2023-04-23T07:58:12.922Z,60.23
2023-04-23T08:00:39.895Z,59.53
2023-04-23T08:03:06.807Z,59.02
2023-04-23T08:05:33.752Z,59.52
2023-04-23T08:08:00.493Z,59.07
2023-04-23T08:10:27.181Z,59.83
2023-04-23T08:12:53.920Z,59.05
2023-04-23T08:15:21.125Z,60.21
2023-04-23T08:17:48.010Z,60.32
2023-04-23T08:20:15.123Z,59.18
2023-04-23T08:22:42.241Z,60.35
2023-04-23T08:25:09.695Z,58.57
2023-04-23T08:27:37.036Z,58.59
2023-04-23T08:30:04.410Z,55.37
2023-04-23T08:32:31.292Z,57.74
2023-04-23T08:34:58.895Z,56.94
2023-04-23T08:37:30.724Z,56.35
2023-04-23T08:39:58.574Z,54.65
2023-04-23T08:42:37.794Z,50.62
2023-04-23T08:45:05.947Z,49.81
2023-04-23T08:47:33.740Z,48.29
2023-04-23T08:50:01.519Z,48.39
2023-04-23T08:52:36.352Z,46.54
2023-04-23T08:55:37.502Z,43.03
2023-04-23T08:58:06.443Z,43.41
2023-04-23T09:00:36.151Z,41.75
2023-04-23T09:03:03.939Z,46.21
2023-04-23T09:06:10.158Z,44.33
2023-04-23T09:08:38.147Z,44.43
2023-04-23T09:11:05.354Z,41.43
2023-04-23T09:13:33.929Z,39.16
2023-04-23T09:16:00.876Z,41.99
2023-04-23T09:18:27.824Z,46.34
2023-04-23T09:20:54.799Z,48.50
2023-04-23T09:23:23.447Z,46.54
2023-04-23T09:25:50.461Z,45.48
2023-04-23T09:28:17.391Z,46.88
2023-04-23T09:30:45.769Z,46.20
2023-04-23T09:33:12.969Z,47.13
2023-04-23T09:35:42.343Z,48.69
2023-04-23T09:38:10.763Z,47.67
2023-04-23T09:40:39.019Z,47.21
2023-04-23T09:43:07.364Z,46.17
2023-04-23T09:45:35.998Z,47.37
2023-04-23T09:48:03.097Z,48.24
2023-04-23T09:50:35.729Z,47.65
2023-04-23T09:53:05.271Z,49.17
2023-04-23T09:55:42.998Z,48.06
2023-04-23T09:58:15.815Z,51.03
2023-04-23T10:00:45.539Z,49.96
2023-04-23T10:03:15.485Z,52.13
2023-04-23T10:06:01.884Z,50.30
2023-04-23T10:08:41.386Z,48.81
2023-04-23T10:14:12.374Z,49.02
2023-04-23T10:16:49.535Z,48.68
2023-04-23T10:19:21.445Z,44.56
2023-04-23T10:22:18.515Z,45.81
2023-04-23T10:25:46.628Z,44.98
2023-04-23T10:28:28.713Z,41.73
2023-04-23T10:34:13.583Z,41.80
2023-04-23T10:36:42.097Z,44.40
2023-04-23T10:41:48.757Z,43.47
2023-04-23T10:44:50.474Z,43.91
2023-04-23T10:47:24.873Z,43.60
2023-04-23T10:49:53.128Z,45.13
2023-04-23T10:52:25.157Z,45.41
2023-04-23T10:55:03.230Z,44.07
2023-04-23T10:58:11.005Z,43.61
2023-04-23T11:00:47.076Z,41.92
2023-04-23T11:03:47.677Z,42.52
2023-04-23T11:06:20.991Z,42.39
2023-04-23T11:08:55.422Z,43.13
2023-04-23T11:11:41.542Z,42.20
2023-04-23T11:14:15.955Z,44.07
2023-04-23T11:16:43.111Z,42.01
2023-04-23T11:19:12.683Z,43.02
2023-04-23T11:21:59.012Z,41.39
2023-04-23T11:24:30.797Z,43.12
2023-04-23T11:26:59.123Z,43.83
2023-04-23T11:29:27.672Z,42.01
2023-04-23T11:34:26.445Z,40.18
2023-04-23T11:36:54.866Z,41.80
2023-04-23T11:39:24.303Z,40.33
2023-04-23T11:41:52.384Z,40.61
2023-04-23T11:44:23.636Z,38.48
2023-04-23T11:46:51.026Z,39.40
2023-04-23T11:49:19.416Z,38.74
2023-04-23T11:51:46.848Z,37.76
2023-04-23T11:54:14.910Z,36.58
2023-04-23T11:56:42.432Z,40.60
2023-04-23T11:59:12.611Z,36.90
2023-04-23T12:01:42.744Z,39.55
2023-04-23T12:04:20.681Z,43.36
2023-04-23T12:06:49.684Z,43.80
2023-04-23T12:09:29.597Z,40.60
2023-04-23T12:11:58.588Z,37.67
2023-04-23T12:14:31.090Z,39.38
2023-04-23T12:16:59.468Z,37.29
2023-04-23T12:19:29.304Z,39.67
2023-04-23T12:22:01.560Z,36.04
2023-04-23T12:24:30.518Z,38.17
2023-04-23T12:27:00.779Z,40.48
2023-04-23T12:29:30.435Z,39.44
2023-04-23T12:32:01.174Z,44.81
2023-04-23T12:34:28.023Z,42.46
2023-04-23T12:36:58.978Z,43.37
2023-04-23T12:39:30.734Z,40.02
2023-04-23T12:42:00.662Z,44.40
2023-04-23T12:44:27.638Z,39.18
2023-04-23T12:46:57.716Z,40.65
2023-04-23T12:49:27.215Z,45.41
2023-04-23T12:52:01.398Z,43.11
2023-04-23T12:54:31.306Z,40.86
2023-04-23T12:56:59.753Z,39.65
2023-04-23T12:59:26.685Z,37.11
2023-04-23T13:01:53.886Z,37.83
2023-04-23T13:04:21.149Z,38.20
2023-04-23T13:06:48.613Z,39.16
2023-04-23T13:09:16.508Z,38.22
2023-04-23T13:11:43.478Z,38.37
2023-04-23T13:14:10.416Z,39.95
2023-04-23T13:16:37.872Z,39.88
2023-04-23T13:19:05.185Z,37.72
2023-04-23T13:21:31.897Z,39.92
2023-04-23T13:23:58.757Z,42.86
2023-04-23T13:26:25.811Z,36.43
2023-04-23T13:28:52.593Z,38.17
2023-04-23T13:31:19.540Z,40.04
2023-04-23T13:33:46.364Z,42.43
2023-04-23T13:36:13.287Z,36.00
2023-04-23T13:38:40.174Z,34.58
2023-04-23T13:41:07.013Z,34.16
2023-04-23T13:43:33.973Z,37.65
2023-04-23T13:46:01.321Z,38.73
2023-04-23T13:48:36.823Z,37.32
2023-04-23T13:51:05.345Z,36.36
2023-04-23T13:53:37.616Z,34.31
2023-04-23T13:56:04.460Z,39.48
2023-04-23T13:58:31.198Z,34.25
2023-04-23T14:00:57.970Z,37.55
2023-04-23T14:03:24.758Z,37.55
2023-04-23T14:05:51.565Z,34.55
2023-04-23T14:08:18.266Z,39.29
2023-04-23T14:10:45.111Z,37.62
2023-04-23T14:13:11.924Z,36.11
2023-04-23T14:15:38.716Z,41.48
2023-04-23T14:18:05.913Z,37.65
2023-04-23T14:20:32.701Z,38.56
2023-04-23T14:23:26.006Z,36.59
2023-04-23T14:25:58.500Z,35.95
2023-04-23T14:28:32.943Z,40.09
2023-04-23T14:31:01.556Z,36.41
2023-04-23T14:33:28.535Z,35.78
2023-04-23T14:35:55.333Z,37.17
2023-04-23T14:38:22.574Z,37.18
2023-04-23T14:40:49.419Z,38.04
2023-04-23T14:43:16.747Z,38.03
2023-04-23T14:45:44.030Z,36.02
2023-04-23T14:48:11.020Z,37.04
2023-04-23T14:50:37.887Z,36.70
2023-04-23T14:53:07.223Z,36.76
2023-04-23T14:55:34.281Z,34.78
2023-04-23T14:58:01.560Z,35.69
2023-04-23T15:00:28.468Z,35.14
2023-04-23T15:02:55.652Z,36.62
2023-04-23T15:05:22.569Z,38.23
2023-04-23T15:07:51.441Z,38.93
2023-04-23T15:10:19.392Z,38.82
2023-04-23T15:13:01.823Z,39.85
2023-04-23T15:15:55.455Z,41.08
2023-04-23T15:18:22.285Z,36.09
2023-04-23T15:20:49.307Z,39.10
2023-04-23T15:23:16.043Z,36.33
2023-04-23T15:25:42.838Z,37.38
2023-04-23T15:28:09.678Z,37.46
2023-04-23T15:30:36.371Z,37.00
2023-04-23T15:33:03.223Z,37.77
2023-04-23T15:35:31.476Z,36.88
2023-04-23T15:37:58.338Z,37.47
2023-04-23T15:40:26.406Z,37.59
2023-04-23T15:42:53.620Z,39.13
2023-04-23T15:45:20.586Z,41.31
2023-04-23T15:47:47.596Z,38.08
2023-04-23T15:50:18.877Z,37.53
2023-04-23T15:52:45.588Z,37.02
2023-04-23T15:55:12.625Z,38.40
2023-04-23T15:57:39.408Z,36.38
2023-04-23T16:00:07.157Z,39.75
2023-04-23T16:02:38.902Z,37.36
2023-04-23T16:05:05.969Z,40.26
2023-04-23T16:07:32.824Z,41.51
2023-04-23T16:09:59.694Z,39.39
2023-04-23T16:12:27.219Z,41.77
2023-04-23T16:14:54.384Z,43.51
2023-04-23T16:17:21.085Z,41.60
2023-04-23T16:19:48.352Z,42.59
2023-04-23T16:22:16.287Z,42.85
2023-04-23T16:24:43.136Z,40.75
2023-04-23T16:27:11.130Z,44.23
2023-04-23T16:29:38.724Z,46.25
2023-04-23T16:32:07.123Z,47.07
2023-04-23T16:34:34.165Z,46.50
2023-04-23T16:37:01.049Z,45.95
2023-04-23T16:39:27.930Z,41.66
2023-04-23T16:41:57.039Z,38.92
2023-04-23T16:44:23.974Z,39.72
2023-04-23T16:46:51.908Z,38.92
2023-04-23T16:49:44.726Z,43.11
2023-04-23T16:52:11.687Z,40.02
2023-04-23T16:54:38.481Z,39.30
2023-04-23T16:57:07.420Z,41.33
2023-04-23T16:59:34.330Z,44.13
2023-04-23T17:02:03.505Z,46.54
2023-04-23T17:04:33.517Z,40.65
2023-04-23T17:07:00.403Z,40.63
2023-04-23T17:09:27.348Z,42.62
2023-04-23T17:11:54.143Z,40.98
2023-04-23T17:14:20.893Z,43.10
2023-04-23T17:16:47.909Z,44.56
2023-04-23T17:19:14.719Z,44.29
2023-04-23T17:21:41.712Z,47.08
2023-04-23T17:24:10.888Z,48.30
2023-04-23T17:26:39.671Z,48.67
2023-04-23T17:29:07.011Z,49.54
2023-04-23T17:31:35.414Z,50.08
2023-04-23T17:34:03.668Z,51.13
2023-04-23T17:36:32.610Z,50.79
2023-04-23T17:39:00.462Z,51.57
2023-04-23T17:41:29.811Z,52.97
2023-04-23T17:43:56.559Z,47.84
2023-04-23T17:46:23.480Z,54.02
2023-04-23T17:48:50.380Z,61.11
2023-04-23T17:51:17.891Z,61.13
2023-04-23T17:53:48.747Z,65.73
2023-04-23T17:56:16.470Z,66.35
2023-04-23T17:58:43.776Z,65.89
2023-04-23T18:01:11.139Z,64.86
2023-04-23T18:03:38.409Z,64.54
2023-04-23T18:06:05.965Z,68.60
2023-04-23T18:08:32.740Z,70.84
2023-04-23T18:11:00.029Z,71.40
2023-04-23T18:13:27.048Z,70.26
2023-04-23T18:15:53.791Z,69.39
2023-04-23T18:18:22.088Z,71.54
2023-04-23T18:20:49.298Z,71.91
2023-04-23T18:23:16.486Z,72.21
2023-04-23T18:25:43.205Z,72.29
2023-04-23T18:28:10.028Z,71.77
2023-04-23T18:30:38.086Z,72.10
2023-04-23T18:37:03.408Z,72.97
2023-04-23T18:39:32.465Z,72.08
2023-04-23T18:41:59.550Z,72.75
2023-04-23T18:44:27.166Z,73.20
2023-04-23T18:46:53.982Z,76.29
2023-04-23T18:49:29.992Z,76.35
2023-04-23T18:51:56.989Z,74.34
2023-04-23T18:54:25.592Z,72.45
2023-04-23T18:56:53.499Z,73.03
2023-04-23T18:59:20.345Z,73.88
2023-04-23T19:01:48.236Z,72.37
2023-04-23T19:04:15.390Z,72.30
2023-04-23T19:06:42.785Z,73.19
2023-04-23T19:09:10.979Z,73.49
2023-04-23T19:11:38.300Z,73.71
2023-04-23T19:14:05.348Z,73.46
2023-04-23T19:16:32.340Z,73.38
2023-04-23T19:18:59.370Z,72.73
2023-04-23T19:21:28.741Z,74.22
2023-04-23T19:23:59.573Z,73.93
2023-04-23T19:26:29.686Z,74.11
2023-04-23T19:28:56.581Z,74.06
2023-04-23T19:31:23.487Z,75.16
2023-04-23T19:33:50.770Z,76.15
2023-04-23T19:36:17.672Z,74.45
2023-04-23T19:38:44.631Z,73.73
2023-04-23T19:41:11.671Z,76.86
2023-04-23T19:43:38.978Z,75.29
2023-04-23T19:47:09.210Z,80.59
2023-04-23T19:49:36.116Z,78.68
2023-04-23T19:52:03.881Z,77.95
2023-04-23T19:54:30.715Z,79.54
2023-04-23T19:56:57.547Z,78.56
2023-04-23T19:59:24.392Z,77.10
2023-04-23T20:01:51.621Z,79.53
2023-04-23T20:04:20.911Z,83.19
2023-04-23T20:06:47.915Z,80.05
2023-04-23T20:09:21.900Z,79.56
2023-04-23T20:11:48.734Z,78.09
2023-04-23T20:14:15.638Z,78.24
2023-04-23T20:16:42.533Z,80.30
2023-04-23T20:19:20.730Z,80.21
2023-04-23T20:21:47.571Z,79.51
2023-04-23T20:24:14.643Z,79.54
2023-04-23T20:26:42.229Z,81.08
2023-04-23T20:29:09.397Z,81.20
2023-04-23T20:31:36.654Z,79.42
2023-04-23T20:34:03.927Z,79.58
2023-04-23T20:36:39.272Z,81.16
2023-04-23T20:39:06.038Z,80.81
2023-04-23T20:41:36.760Z,77.68
2023-04-23T20:44:09.235Z,80.56
2023-04-23T20:46:36.986Z,79.16
2023-04-23T20:49:04.548Z,79.07
2023-04-23T20:51:34.684Z,80.55
2023-04-23T20:54:02.284Z,78.31
2023-04-23T20:56:29.928Z,79.61
2023-04-23T20:59:00.096Z,79.84
2023-04-23T21:01:27.182Z,81.04
2023-04-23T21:03:54.424Z,80.56
2023-04-23T21:06:22.224Z,79.08
2023-04-23T21:08:49.354Z,78.86
2023-04-23T21:11:18.371Z,80.21
2023-04-23T21:13:46.686Z,80.43
2023-04-23T21:16:13.804Z,80.33
2023-04-23T21:18:42.452Z,79.60
2023-04-23T21:21:09.206Z,79.36
2023-04-23T21:23:36.261Z,78.09
2023-04-23T21:26:03.474Z,78.57
2023-04-23T21:28:31.788Z,78.20
2023-04-23T21:31:06.676Z,78.08
2023-04-23T21:33:33.461Z,79.38
2023-04-23T21:36:00.239Z,79.00
2023-04-23T21:38:27.001Z,79.60
2023-04-23T21:40:53.982Z,78.34
2023-04-23T21:43:20.788Z,82.21
2023-04-23T21:45:47.494Z,80.21
2023-04-23T21:48:15.139Z,80.30
2023-04-23T21:50:42.503Z,80.81
2023-04-23T21:53:09.863Z,80.97
2023-04-23T21:55:36.727Z,81.84
2023-04-23T21:58:16.358Z,80.33
2023-04-23T22:00:45.086Z,79.52
2023-04-23T22:03:13.375Z,79.47
2023-04-23T22:05:45.741Z,79.62
2023-04-23T22:08:12.837Z,78.41
2023-04-23T22:10:43.252Z,79.26
2023-04-23T22:13:11.339Z,80.04
2023-04-23T22:15:38.491Z,78.78
2023-04-23T22:18:05.629Z,77.99
2023-04-23T22:20:32.643Z,78.04
2023-04-23T22:22:59.467Z,79.44
2023-04-23T22:25:26.233Z,77.65
2023-04-23T22:27:52.943Z,79.71
2023-04-23T22:30:19.767Z,79.62
2023-04-23T22:32:46.636Z,80.54
2023-04-23T22:35:13.461Z,81.99
2023-04-23T22:37:40.418Z,80.06
2023-04-23T22:40:10.495Z,80.64
2023-04-23T22:42:37.820Z,79.17
2023-04-23T22:45:06.126Z,80.77
2023-04-23T22:47:33.101Z,79.87
2023-04-23T22:49:59.889Z,79.85
2023-04-23T22:52:27.199Z,78.95
2023-04-23T22:54:55.120Z,79.35
2023-04-23T22:57:22.004Z,77.97
2023-04-23T22:59:49.252Z,79.30
2023-04-23T23:02:16.666Z,78.87
2023-04-23T23:04:43.509Z,79.01
2023-04-23T23:07:10.653Z,78.51
2023-04-23T23:09:37.434Z,77.70
2023-04-23T23:12:04.876Z,80.77
2023-04-23T23:14:31.992Z,81.90
2023-04-23T23:16:59.079Z,80.77
2023-04-23T23:19:27.236Z,78.93
2023-04-23T23:21:54.203Z,80.92
2023-04-23T23:24:22.325Z,78.96
2023-04-23T23:26:50.434Z,79.14
2023-04-23T23:29:17.219Z,78.89
2023-04-23T23:31:44.284Z,79.02
2023-04-23T23:34:11.373Z,77.50
2023-04-23T23:37:16.526Z,76.60
2023-04-23T23:39:43.540Z,76.30
2023-04-23T23:42:10.867Z,77.56
2023-04-23T23:44:37.647Z,79.12
2023-04-23T23:47:04.698Z,77.46
2023-04-23T23:49:31.634Z,77.11
2023-04-23T23:51:58.460Z,75.98
2023-04-23T23:54:25.155Z,77.44
2023-04-23T23:56:52.039Z,77.68
2023-04-23T23:59:18.835Z,78.09
